createdAt,value
2022-12-25T00:02:01.053Z,97028.25
2022-12-25T00:04:27.480Z,97018.66
2022-12-25T00:06:54.088Z,97014.44
2022-12-25T00:09:20.659Z,97016.47
2022-12-25T00:11:47.228Z,97011.66
2022-12-25T00:14:13.762Z,97013.47
2022-12-25T00:16:40.310Z,97016.06
2022-12-25T00:19:06.925Z,97014.50
2022-12-25T00:21:33.474Z,96996.22
2022-12-25T00:24:00.235Z,97006.50
2022-12-25T00:26:27.539Z,97017.69
2022-12-25T00:28:55.428Z,97027.31
2022-12-25T00:31:22.808Z,97015.50
2022-12-25T00:33:51.580Z,97007.88
2022-12-25T00:36:21.172Z,97020.13
2022-12-25T00:38:48.085Z,97019.72
2022-12-25T00:41:39.191Z,97011.72
2022-12-25T00:44:06.667Z,97014.94
2022-12-25T00:46:33.342Z,97007.69
2022-12-25T00:49:00.564Z,97011.53
2022-12-25T00:51:27.161Z,97015.16
2022-12-25T00:53:54.037Z,97022.16
2022-12-25T00:56:20.565Z,97014.53
2022-12-25T00:58:48.171Z,97034.00
2022-12-25T01:01:14.809Z,97021.34
2022-12-25T01:03:41.436Z,97034.59
2022-12-25T01:06:10.911Z,97040.00
2022-12-25T01:08:39.144Z,97035.59
2022-12-25T01:11:08.091Z,97038.78
2022-12-25T01:13:36.909Z,97030.16
2022-12-25T01:16:08.625Z,97043.78
2022-12-25T01:18:35.880Z,97050.59
2022-12-25T01:21:09.831Z,97049.78
2022-12-25T01:23:37.023Z,97056.59
2022-12-25T01:26:05.135Z,97064.81
2022-12-25T01:28:32.979Z,97042.97
2022-12-25T01:30:59.505Z,97049.38
2022-12-25T01:33:26.024Z,97050.97
2022-12-25T01:35:52.754Z,97026.94
2022-12-25T01:38:19.597Z,97048.78
2022-12-25T01:40:46.171Z,97044.59
2022-12-25T01:43:23.020Z,97034.34
2022-12-25T01:45:52.579Z,97051.41
2022-12-25T01:48:32.736Z,97038.38
2022-12-25T01:51:03.722Z,97041.38
2022-12-25T01:53:30.416Z,97027.94
2022-12-25T01:56:02.442Z,97050.81
2022-12-25T01:58:30.384Z,97050.00
2022-12-25T02:00:58.032Z,97046.38
2022-12-25T02:03:25.418Z,97047.00
2022-12-25T02:05:52.506Z,97044.59
2022-12-25T02:08:21.092Z,97032.75
2022-12-25T02:10:50.401Z,97032.34
2022-12-25T02:13:19.667Z,97010.09
2022-12-25T02:15:54.939Z,97039.97
2022-12-25T02:18:29.200Z,97035.97
2022-12-25T02:21:25.168Z,97045.56
2022-12-25T02:24:18.996Z,97052.00
2022-12-25T02:26:58.289Z,97049.16
2022-12-25T02:29:46.802Z,97031.13
2022-12-25T02:32:33.532Z,97051.75
2022-12-25T02:35:15.421Z,97050.97
2022-12-25T02:37:47.810Z,97033.72
2022-12-25T02:40:37.333Z,97065.81
2022-12-25T02:43:25.597Z,97049.78
2022-12-25T02:46:15.304Z,97066.41
2022-12-25T02:49:08.039Z,97053.81
2022-12-25T02:51:58.649Z,97072.03
2022-12-25T02:54:49.448Z,97063.41
2022-12-25T02:57:41.745Z,97058.63
2022-12-25T03:00:28.528Z,97053.00
2022-12-25T03:03:16.329Z,97048.22
2022-12-25T03:06:03.634Z,97056.22
2022-12-25T03:08:37.758Z,97058.44
2022-12-25T03:11:28.039Z,97047.38
2022-12-25T03:14:23.032Z,97044.59
2022-12-25T03:16:56.451Z,97050.38
2022-12-25T03:19:47.613Z,97017.50
2022-12-25T03:22:43.396Z,97040.38
2022-12-25T03:25:29.216Z,97010.91
2022-12-25T03:27:57.695Z,97026.53
2022-12-25T03:30:51.796Z,97011.50
2022-12-25T03:33:45.050Z,97031.94
2022-12-25T03:36:30.342Z,97006.25
2022-12-25T03:39:20.959Z,97024.72
2022-12-25T03:42:11.537Z,97018.31
2022-12-25T03:45:19.274Z,97019.31
2022-12-25T03:48:07.697Z,97017.28
2022-12-25T03:50:56.277Z,97011.31
2022-12-25T03:54:03.393Z,97011.69
2022-12-25T03:56:50.641Z,97018.91
2022-12-25T03:59:40.771Z,97001.06
2022-12-25T04:02:26.061Z,96995.06
2022-12-25T04:05:11.352Z,97003.25
2022-12-25T04:07:56.557Z,97008.50
2022-12-25T04:10:41.660Z,96987.84
2022-12-25T04:13:26.786Z,97003.28
2022-12-25T04:16:12.739Z,97007.69
2022-12-25T04:18:58.608Z,97006.88
2022-12-25T04:21:44.268Z,97008.88
2022-12-25T04:24:30.483Z,97008.28
2022-12-25T04:27:15.647Z,96998.25
2022-12-25T04:30:01.149Z,97007.09
2022-12-25T04:32:46.339Z,97004.09
2022-12-25T04:35:31.539Z,97010.69
2022-12-25T04:37:58.030Z,97015.91
2022-12-25T04:40:24.808Z,97007.88
2022-12-25T04:42:51.715Z,96986.66
2022-12-25T04:45:18.546Z,96996.47
2022-12-25T04:47:45.034Z,96985.28
2022-12-25T04:50:11.668Z,97003.09
2022-12-25T04:52:39.931Z,96978.84
2022-12-25T04:55:08.124Z,96994.88
2022-12-25T04:57:34.941Z,96986.06
2022-12-25T05:00:01.771Z,96981.06
2022-12-25T05:02:28.462Z,96997.28
2022-12-25T05:04:55.135Z,96975.22
2022-12-25T05:07:21.566Z,96997.66
2022-12-25T05:09:48.104Z,96992.66
2022-12-25T05:12:14.616Z,96994.22
2022-12-25T05:14:41.274Z,96982.22
2022-12-25T05:17:08.162Z,96967.19
2022-12-25T05:19:35.013Z,96978.38
2022-12-25T05:22:02.372Z,96978.19
2022-12-25T05:24:29.006Z,96958.94
2022-12-25T05:26:55.768Z,96974.16
2022-12-25T05:29:22.293Z,96974.97
2022-12-25T05:31:48.852Z,96969.75
2022-12-25T05:34:15.410Z,96970.91
2022-12-25T05:36:41.915Z,96969.50
2022-12-25T05:39:08.334Z,96970.72
2022-12-25T05:41:35.122Z,96980.91
2022-12-25T05:44:02.260Z,96980.31
2022-12-25T05:46:28.852Z,96949.63
2022-12-25T05:48:55.664Z,96979.50
2022-12-25T05:51:22.194Z,96989.50
2022-12-25T05:53:48.754Z,96971.88
2022-12-25T05:56:15.292Z,96976.69
2022-12-25T05:58:41.845Z,96973.69
2022-12-25T06:01:13.619Z,96968.28
2022-12-25T06:03:40.241Z,96943.59
2022-12-25T06:06:07.353Z,96964.66
2022-12-25T06:08:34.681Z,96942.97
2022-12-25T06:11:07.114Z,96963.75
2022-12-25T06:13:34.954Z,96967.72
2022-12-25T06:16:10.107Z,96959.09
2022-12-25T06:18:41.873Z,96924.03
2022-12-25T06:21:13.684Z,96942.06
2022-12-25T06:23:40.633Z,96956.72
2022-12-25T06:26:09.732Z,96960.53
2022-12-25T06:28:36.777Z,96954.91
2022-12-25T06:31:11.246Z,96969.31
2022-12-25T06:33:38.432Z,96961.53
2022-12-25T06:36:07.388Z,96939.25
2022-12-25T06:38:33.927Z,96958.09
2022-12-25T06:41:08.389Z,96947.69
2022-12-25T06:43:34.831Z,96959.94
2022-12-25T06:46:19.818Z,96966.34
2022-12-25T06:48:49.839Z,96963.13
2022-12-25T06:51:18.448Z,96956.31
2022-12-25T06:53:45.382Z,96950.81
2022-12-25T06:56:15.732Z,96964.03
2022-12-25T06:58:44.194Z,96975.00
2022-12-25T07:01:16.955Z,96964.47
2022-12-25T07:03:45.435Z,96942.00
2022-12-25T07:06:12.247Z,96966.69
2022-12-25T07:08:39.091Z,96961.22
2022-12-25T07:11:06.199Z,96967.63
2022-12-25T07:13:32.713Z,96983.25
2022-12-25T07:16:00.856Z,96978.88
2022-12-25T07:18:28.085Z,96975.63
2022-12-25T07:20:59.376Z,96954.56
2022-12-25T07:23:26.817Z,96965.59
2022-12-25T07:25:58.068Z,96954.59
2022-12-25T07:28:25.088Z,96974.22
2022-12-25T07:30:51.675Z,96972.66
2022-12-25T07:33:18.518Z,96973.69
2022-12-25T07:35:45.332Z,96942.09
2022-12-25T07:38:12.265Z,96985.44
2022-12-25T07:40:38.721Z,96971.63
2022-12-25T07:43:05.133Z,96980.84
2022-12-25T07:45:31.833Z,96965.97
2022-12-25T07:48:04.459Z,96946.13
2022-12-25T07:50:31.865Z,96969.00
2022-12-25T07:52:58.263Z,96980.50
2022-12-25T07:55:24.738Z,96964.53
2022-12-25T07:57:51.975Z,96964.22
2022-12-25T08:00:18.980Z,96971.25
2022-12-25T08:02:45.582Z,96956.06
2022-12-25T08:05:12.208Z,96953.31
2022-12-25T08:07:38.626Z,96981.16
2022-12-25T08:10:05.665Z,96973.03
2022-12-25T08:12:32.227Z,96960.84
2022-12-25T08:14:58.611Z,96968.75
2022-12-25T08:17:25.126Z,96988.84
2022-12-25T08:19:51.591Z,96980.06
2022-12-25T08:22:17.964Z,96986.78
2022-12-25T08:24:44.484Z,96985.63
2022-12-25T08:27:11.103Z,96988.78
2022-12-25T08:29:37.463Z,97003.19
2022-12-25T08:32:04.222Z,96936.91
2022-12-25T08:34:30.691Z,96982.38
2022-12-25T08:36:57.185Z,97001.75
2022-12-25T08:39:24.299Z,97002.53
2022-12-25T08:41:50.787Z,96991.38
2022-12-25T08:44:17.186Z,96997.72
2022-12-25T08:46:43.764Z,96984.88
2022-12-25T08:49:10.381Z,96989.66
2022-12-25T08:51:37.351Z,96980.34
2022-12-25T08:54:04.002Z,96990.75
2022-12-25T08:56:30.633Z,96978.50
2022-12-25T08:58:57.213Z,96997.09
2022-12-25T09:01:23.798Z,96967.00
2022-12-25T09:03:50.483Z,96960.25
2022-12-25T09:06:17.079Z,96965.44
2022-12-25T09:08:48.671Z,96995.94
2022-12-25T09:11:17.020Z,97000.03
2022-12-25T09:13:43.556Z,96981.56
2022-12-25T09:16:13.385Z,96992.28
2022-12-25T09:18:39.925Z,96968.81
2022-12-25T09:21:07.643Z,96981.81
2022-12-25T09:23:34.446Z,96974.84
2022-12-25T09:26:03.013Z,96994.50
2022-12-25T09:28:30.054Z,96997.88
2022-12-25T09:30:56.594Z,96983.66
2022-12-25T09:33:23.568Z,96992.50
2022-12-25T09:36:01.720Z,97001.50
2022-12-25T09:38:29.017Z,97001.09
2022-12-25T09:41:02.423Z,96990.28
2022-12-25T09:43:32.786Z,97001.13
2022-12-25T09:46:02.316Z,96988.84
2022-12-25T09:48:32.760Z,96983.28
2022-12-25T09:51:27.753Z,96988.06
2022-12-25T09:54:07.030Z,96978.84
2022-12-25T09:56:33.563Z,96990.06
2022-12-25T09:58:59.938Z,96980.63
2022-12-25T10:01:50.214Z,96964.81
2022-12-25T10:04:47.461Z,96965.53
2022-12-25T10:07:47.938Z,96958.72
2022-12-25T10:10:32.358Z,96957.91
2022-12-25T10:13:20.739Z,96945.53
2022-12-25T10:15:59.125Z,96930.69
2022-12-25T10:18:47.407Z,96935.25
2022-12-25T10:21:18.186Z,96935.81
2022-12-25T10:23:50.052Z,96919.31
2022-12-25T10:26:20.514Z,96927.25
2022-12-25T10:28:55.704Z,96916.81
2022-12-25T10:31:30.502Z,96905.75
2022-12-25T10:33:57.508Z,96881.66
2022-12-25T10:36:26.740Z,96903.94
2022-12-25T10:38:54.360Z,96890.81
2022-12-25T10:42:08.320Z,96889.59
2022-12-25T10:44:35.227Z,96877.97
2022-12-25T10:47:04.528Z,96888.09
2022-12-25T10:49:39.066Z,96888.94
2022-12-25T10:52:27.449Z,96877.69
2022-12-25T10:54:54.014Z,96859.59
2022-12-25T10:57:23.623Z,96866.03
2022-12-25T10:59:52.775Z,96880.59
2022-12-25T11:02:29.361Z,96864.75
2022-12-25T11:05:07.345Z,96877.56
2022-12-25T11:07:46.567Z,96878.78
2022-12-25T11:10:32.464Z,96867.00
2022-12-25T11:13:00.803Z,96877.41
2022-12-25T11:32:56.144Z,96846.91
2022-12-25T11:35:27.892Z,96826.16
2022-12-25T11:37:54.443Z,96848.75
2022-12-25T11:40:36.610Z,96843.38
2022-12-25T11:43:14.503Z,96840.06
2022-12-25T11:45:55.004Z,96835.84
2022-12-25T11:48:27.046Z,96827.94
2022-12-25T11:50:57.638Z,96828.06
2022-12-25T11:53:46.895Z,96821.69
2022-12-25T11:56:19.796Z,96820.00
2022-12-25T11:58:56.920Z,96800.56
2022-12-25T12:01:33.375Z,96815.09
2022-12-25T12:04:01.968Z,96823.09
2022-12-25T12:06:50.232Z,96820.13
2022-12-25T12:09:25.602Z,96809.59
2022-12-25T12:12:30.746Z,96806.28
2022-12-25T12:14:57.260Z,96810.19
2022-12-25T12:17:23.816Z,96800.53
2022-12-25T12:19:50.578Z,96800.28
2022-12-25T12:22:24.193Z,96799.97
2022-12-25T12:24:58.958Z,96796.00
2022-12-25T12:27:33.050Z,96783.59
2022-12-25T12:30:00.374Z,96784.94
2022-12-25T12:32:29.615Z,96777.78
2022-12-25T12:34:56.980Z,96775.97
2022-12-25T12:37:31.269Z,96774.59
2022-12-25T12:39:58.474Z,96773.75
2022-12-25T12:42:38.921Z,96767.59
2022-12-25T12:45:20.565Z,96759.75
2022-12-25T12:47:49.214Z,96758.28
2022-12-25T12:50:26.813Z,96762.84
2022-12-25T12:52:53.521Z,96763.53
2022-12-25T12:55:29.901Z,96757.25
2022-12-25T12:58:05.090Z,96764.00
2022-12-25T13:00:49.436Z,96761.34
2022-12-25T13:03:25.116Z,96762.47
2022-12-25T13:06:00.793Z,96752.59
2022-12-25T13:09:02.894Z,96747.94
2022-12-25T13:11:32.329Z,96757.16
2022-12-25T13:14:02.939Z,96759.22
2022-12-25T13:16:34.743Z,96754.78
2022-12-25T13:19:06.068Z,96742.78
2022-12-25T13:21:33.695Z,96740.44
2022-12-25T13:24:08.952Z,96734.94
2022-12-25T13:26:36.263Z,96732.22
2022-12-25T13:29:07.929Z,96728.34
2022-12-25T13:31:40.302Z,96695.66
2022-12-25T13:34:23.292Z,96725.38
2022-12-25T13:36:50.288Z,96727.78
2022-12-25T13:39:18.525Z,96729.59
2022-12-25T13:42:05.829Z,96736.44
2022-12-25T13:44:54.997Z,96741.22
2022-12-25T13:47:30.988Z,96741.66
2022-12-25T13:50:00.919Z,96750.78
2022-12-25T13:52:35.298Z,96757.88
2022-12-25T13:55:23.622Z,96753.06
2022-12-25T13:58:00.244Z,96743.50
2022-12-25T14:00:47.431Z,96733.38
2022-12-25T14:03:21.953Z,96737.69
2022-12-25T14:05:56.920Z,96722.09
2022-12-25T14:08:27.078Z,96735.50
2022-12-25T14:10:54.714Z,96715.69
2022-12-25T14:13:27.473Z,96748.75
2022-12-25T14:15:55.783Z,96743.97
2022-12-25T14:18:24.124Z,96735.84
2022-12-25T14:21:12.492Z,96743.59
2022-12-25T14:23:49.994Z,96719.22
2022-12-25T14:26:22.819Z,96725.06
2022-12-25T14:28:55.715Z,96727.09
2022-12-25T14:31:25.392Z,96718.59
2022-12-25T14:33:54.325Z,96716.13
2022-12-25T14:36:21.412Z,96717.56
2022-12-25T14:38:59.041Z,96730.22
2022-12-25T14:41:39.322Z,96732.25
2022-12-25T14:44:24.884Z,96719.69
2022-12-25T14:47:02.433Z,96737.69
2022-12-25T14:49:31.782Z,96731.16
2022-12-25T14:51:58.777Z,96734.66
2022-12-25T14:54:26.665Z,96735.44
2022-12-25T14:56:56.112Z,96740.97
2022-12-25T14:59:27.055Z,96739.59
2022-12-25T15:02:03.357Z,96732.50
2022-12-25T15:04:30.416Z,96738.59
2022-12-25T15:07:11.612Z,96732.44
2022-12-25T15:09:38.134Z,96721.72
2022-12-25T15:12:04.745Z,96717.38
2022-12-25T15:14:31.610Z,96708.59
2022-12-25T15:17:01.183Z,96716.06
2022-12-25T15:19:38.696Z,96695.75
2022-12-25T15:22:06.120Z,96709.19
2022-12-25T15:24:32.732Z,96717.78
2022-12-25T15:27:00.584Z,96707.78
2022-12-25T15:30:00.010Z,96707.50
2022-12-25T15:32:19.768Z,96710.34
2022-12-25T15:34:49.518Z,96713.81
2022-12-25T15:37:18.179Z,96710.41
2022-12-25T15:39:45.761Z,96719.13
2022-12-25T15:42:18.067Z,96719.91
2022-12-25T15:44:45.438Z,96718.38
2022-12-25T15:47:13.967Z,96728.41
2022-12-25T15:49:40.945Z,96725.66
2022-12-25T15:52:10.259Z,96725.06
2022-12-25T15:54:36.852Z,96730.44
2022-12-25T15:57:04.349Z,96724.28
2022-12-25T15:59:31.875Z,96705.31
2022-12-25T16:02:01.599Z,96736.72
2022-12-25T16:04:31.278Z,96736.94
2022-12-25T16:06:58.982Z,96729.50
2022-12-25T16:09:27.101Z,96731.06
2022-12-25T16:11:53.591Z,96723.91
2022-12-25T16:14:20.191Z,96715.47
2022-12-25T16:16:46.768Z,96714.97
2022-12-25T16:19:13.313Z,96724.84
2022-12-25T16:21:41.188Z,96728.88
2022-12-25T16:24:08.159Z,96732.50
2022-12-25T16:26:35.391Z,96733.00
2022-12-25T16:29:07.290Z,96734.81
2022-12-25T16:31:35.883Z,96742.69
2022-12-25T16:34:04.063Z,96732.56
2022-12-25T16:36:30.653Z,96731.53
2022-12-25T16:38:57.403Z,96729.97
2022-12-25T16:41:24.037Z,96724.31
2022-12-25T16:43:50.570Z,96704.84
2022-12-25T16:46:20.755Z,96714.91
2022-12-25T16:48:47.935Z,96715.31
2022-12-25T16:51:18.054Z,96701.94
2022-12-25T16:53:44.947Z,96717.91
2022-12-25T16:56:14.843Z,96718.91
2022-12-25T16:58:42.144Z,96716.38
2022-12-25T17:01:11.651Z,96711.16
2022-12-25T17:03:39.027Z,96710.78
2022-12-25T17:06:23.680Z,96719.63
2022-12-25T17:08:52.115Z,96695.69
2022-12-25T17:11:23.569Z,96715.69
2022-12-25T17:13:50.407Z,96714.91
2022-12-25T17:16:20.303Z,96708.66
2022-12-25T17:18:47.156Z,96699.94
2022-12-25T17:21:14.799Z,96707.88
2022-12-25T17:23:41.917Z,96706.38
2022-12-25T17:26:08.557Z,96712.28
2022-12-25T17:28:35.145Z,96691.88
2022-12-25T17:31:03.558Z,96693.31
2022-12-25T17:33:30.383Z,96673.13
2022-12-25T17:36:04.125Z,96699.69
2022-12-25T17:38:32.529Z,96703.28
2022-12-25T17:41:00.708Z,96707.13
2022-12-25T17:43:27.393Z,96710.72
2022-12-25T17:45:54.350Z,96681.53
2022-12-25T17:48:21.049Z,96685.84
2022-12-25T17:50:48.012Z,96714.06
2022-12-25T17:53:14.682Z,96705.03
2022-12-25T17:55:41.414Z,96717.94
2022-12-25T17:58:09.130Z,96713.28
2022-12-25T18:00:36.719Z,96721.78
2022-12-25T18:03:10.885Z,96703.94
2022-12-25T18:05:38.454Z,96715.75
2022-12-25T18:08:05.501Z,96721.19
2022-12-25T18:10:38.373Z,96715.16
2022-12-25T18:13:04.846Z,96673.44
2022-12-25T18:15:31.323Z,96713.19
2022-12-25T18:17:57.896Z,96721.06
2022-12-25T18:20:24.346Z,96722.22
2022-12-25T18:22:50.738Z,96713.63
2022-12-25T18:25:17.191Z,96711.19
2022-12-25T18:27:43.588Z,96714.63
2022-12-25T18:30:10.263Z,96701.31
2022-12-25T18:32:36.841Z,96682.22
2022-12-25T18:35:03.496Z,96687.84
2022-12-25T18:37:33.127Z,96705.88
2022-12-25T18:40:05.126Z,96702.53
2022-12-25T18:42:40.804Z,96715.63
2022-12-25T18:45:10.545Z,96686.00
2022-12-25T18:47:37.242Z,96721.66
2022-12-25T18:50:04.461Z,96713.47
2022-12-25T18:52:48.824Z,96712.81
2022-12-25T18:55:17.175Z,96708.25
2022-12-25T18:57:43.696Z,96688.88
2022-12-25T19:00:10.354Z,96696.44
2022-12-25T19:02:36.993Z,96706.63
2022-12-25T19:05:03.940Z,96705.88
2022-12-25T19:07:30.426Z,96718.91
2022-12-25T19:09:56.842Z,96720.06
2022-12-25T19:12:23.871Z,96707.06
2022-12-25T19:14:50.472Z,96694.69
2022-12-25T19:17:17.733Z,96697.69
2022-12-25T19:19:44.356Z,96704.28
2022-12-25T19:22:11.092Z,96686.66
2022-12-25T19:24:37.703Z,96684.25
2022-12-25T19:27:04.409Z,96713.06
2022-12-25T19:29:31.705Z,96714.91
2022-12-25T19:31:58.418Z,96704.34
2022-12-25T19:34:25.066Z,96704.75
2022-12-25T19:36:51.705Z,96708.34
2022-12-25T19:39:18.867Z,96695.97
2022-12-25T19:41:47.303Z,96694.72
2022-12-25T19:44:13.900Z,96697.34
2022-12-25T19:46:40.739Z,96700.75
2022-12-25T19:49:10.132Z,96697.56
2022-12-25T19:51:39.159Z,96699.22
2022-12-25T19:54:06.298Z,96704.44
2022-12-25T19:56:33.610Z,96678.81
2022-12-25T19:59:00.571Z,96690.81
2022-12-25T20:01:29.229Z,96701.41
2022-12-25T20:03:56.500Z,96698.63
2022-12-25T20:06:33.476Z,96714.44
2022-12-25T20:09:05.035Z,96703.03
2022-12-25T20:11:32.878Z,96705.00
2022-12-25T20:13:59.673Z,96699.63
2022-12-25T20:16:26.419Z,96694.84
2022-12-25T20:18:53.443Z,96667.28
2022-12-25T20:21:22.324Z,96714.06
2022-12-25T20:23:51.348Z,96716.84
2022-12-25T20:26:19.992Z,96716.81
2022-12-25T20:28:46.637Z,96714.44
2022-12-25T20:31:19.545Z,96719.63
2022-12-25T20:33:47.130Z,96718.19
2022-12-25T20:36:14.024Z,96715.97
2022-12-25T20:38:41.257Z,96720.03
2022-12-25T20:41:28.523Z,96722.47
2022-12-25T20:43:55.900Z,96717.91
2022-12-25T20:46:22.798Z,96728.94
2022-12-25T20:48:49.400Z,96723.72
2022-12-25T20:51:17.476Z,96728.53
2022-12-25T20:53:45.051Z,96722.53
2022-12-25T20:56:14.069Z,96724.94
2022-12-25T20:58:40.616Z,96704.13
2022-12-25T21:01:10.137Z,96719.94
2022-12-25T21:03:37.372Z,96727.91
2022-12-25T21:06:04.190Z,96734.13
2022-12-25T21:08:31.321Z,96719.72
2022-12-25T21:11:02.659Z,96739.72
2022-12-25T21:13:35.610Z,96740.13
2022-12-25T21:16:06.150Z,96738.09
2022-12-25T21:18:33.129Z,96746.91
2022-12-25T21:21:00.914Z,96745.72
2022-12-25T21:23:28.744Z,96745.50
2022-12-25T21:25:55.363Z,96753.66
2022-12-25T21:28:22.766Z,96749.03
2022-12-25T21:30:49.342Z,96750.84
2022-12-25T21:33:35.180Z,96761.66
2022-12-25T21:36:10.423Z,96770.22
2022-12-25T21:38:37.668Z,96760.09
2022-12-25T21:41:14.727Z,96783.53
2022-12-25T21:43:42.928Z,96788.56
2022-12-25T21:46:14.121Z,96776.13
2022-12-25T21:48:41.893Z,96778.94
2022-12-25T21:51:38.742Z,96774.19
2022-12-25T21:54:06.604Z,96765.56
2022-12-25T21:56:41.338Z,96772.63
2022-12-25T21:59:13.340Z,96774.19
2022-12-25T22:01:39.921Z,96784.19
2022-12-25T22:04:09.165Z,96776.59
2022-12-25T22:06:54.610Z,96775.81
2022-12-25T22:09:21.990Z,96773.81
2022-12-25T22:12:07.733Z,96784.81
2022-12-25T22:14:55.311Z,96769.78
2022-12-25T22:17:46.785Z,96749.78
2022-12-25T22:20:20.384Z,96768.19
2022-12-25T22:22:47.065Z,96799.59
2022-12-25T22:25:14.652Z,96794.56
2022-12-25T22:27:42.826Z,96794.16
2022-12-25T22:30:15.298Z,96791.38
2022-12-25T22:32:42.030Z,96778.94
2022-12-25T22:35:09.665Z,96781.38
2022-12-25T22:37:37.433Z,96785.38
2022-12-25T22:40:06.426Z,96791.38
2022-12-25T22:42:33.354Z,96771.75
2022-12-25T22:44:59.832Z,96764.16
2022-12-25T22:47:26.391Z,96798.97
2022-12-25T22:49:52.828Z,96801.34
2022-12-25T22:52:19.321Z,96808.72
2022-12-25T22:54:45.801Z,96779.13
2022-12-25T22:57:12.253Z,96812.38
2022-12-25T22:59:38.963Z,96812.69
2022-12-25T23:18:11.360Z,96815.44
2022-12-25T23:20:56.535Z,96820.03
2022-12-25T23:23:41.807Z,96824.97
2022-12-25T23:26:08.448Z,96826.13
2022-12-25T23:28:55.293Z,96816.47
2022-12-25T23:31:27.201Z,96834.66
2022-12-25T23:33:53.823Z,96827.63
2022-12-25T23:36:20.395Z,96828.41
2022-12-25T23:38:46.904Z,96823.38
2022-12-25T23:41:13.491Z,96825.31
2022-12-25T23:43:40.003Z,96821.75
2022-12-25T23:46:06.516Z,96823.63
2022-12-25T23:48:33.166Z,96836.38
2022-12-25T23:51:07.212Z,96836.84
2022-12-25T23:53:34.710Z,96826.03
2022-12-25T23:56:02.168Z,96841.59
2022-12-25T23:58:29.261Z,96815.97
